Time;durP1;ratioP1;P1;durP2;ratioP2;P2;SDS_P1;SDS_P2;PMS_P1;PMS_P2;Temp;Humidity;BMP_temperature;BMP_pressure;BME280_temperature;BME280_humidity;BME280_pressure;Samples;Min_cycle;Max_cycle;Signal;HPM_P1;HPM_P2
2023/07/17 05:17:15;;;;;;;7.78;3.40;;;;;;;18.61;91.84;101562.06;4961674;23;20119;-96
2023/07/17 05:19:43;;;;;;;9.90;3.47;;;;;;;19.02;88.54;101578.81;4947397;29;20035;-96
2023/07/17 05:22:10;;;;;;;14.83;4.00;;;;;;;19.08;87.13;101564.03;4945106;29;20264;-96
2023/07/17 05:24:37;;;;;;;9.00;3.35;;;;;;;19.59;85.18;101615.88;4943847;28;20058;-96
2023/07/17 05:27:04;;;;;;;12.00;3.17;;;;;;;19.68;83.77;101570.59;4929002;29;20047;-96
2023/07/17 05:29:33;;;;;;;8.35;3.22;;;;;;;20.01;80.22;101577.84;4946650;28;20130;-96
2023/07/17 05:31:58;;;;;;;8.85;3.10;;;;;;;20.34;79.13;101610.34;4931593;29;20036;-96
2023/07/17 05:34:26;;;;;;;9.68;3.08;;;;;;;20.54;79.00;101625.41;4948651;29;20431;-96
2023/07/17 05:36:53;;;;;;;8.90;3.13;;;;;;;20.75;77.19;101592.28;4947186;29;20032;-96
2023/07/17 05:39:19;;;;;;;7.25;2.95;;;;;;;21.05;74.30;101592.69;4960368;29;20038;-96
2023/07/17 05:41:47;;;;;;;9.70;3.28;;;;;;;20.86;74.44;101590.94;4946460;29;20035;-96
2023/07/17 05:44:14;;;;;;;10.18;3.50;;;;;;;20.91;73.88;101588.09;4950259;28;20039;-96
2023/07/17 05:46:41;;;;;;;11.60;3.50;;;;;;;20.97;72.67;101626.91;4955255;29;20039;-96
2023/07/17 05:49:09;;;;;;;12.70;3.67;;;;;;;20.63;75.16;101620.88;4950557;29;20368;-96
2023/07/17 05:51:48;;;;;;;6.30;3.20;;;;;;;20.54;75.37;101590.03;4951528;29;20071;-96
2023/07/17 05:54:16;;;;;;;9.60;3.72;;;;;;;20.45;74.38;101589.97;4949935;29;20043;-96
2023/07/17 05:56:42;;;;;;;8.55;3.60;;;;;;;20.58;75.95;101623.69;4944701;29;20036;-96
2023/07/17 05:59:12;;;;;;;8.63;3.83;;;;;;;20.11;76.64;101594.75;4943260;28;20353;-96
2023/07/17 06:01:37;;;;;;;7.07;3.65;;;;;;;20.16;77.44;101628.41;4946647;29;20062;-96
2023/07/17 06:04:03;;;;;;;7.17;3.20;;;;;;;19.86;78.94;101603.41;4951637;29;20024;-96
2023/07/17 06:06:37;;;;;;;11.38;3.83;;;;;;;19.67;79.82;101593.44;4953732;29;20032;-96
2023/07/17 06:09:06;;;;;;;10.52;3.95;;;;;;;19.48;79.57;101599.75;4952120;29;20112;-96
2023/07/17 06:11:37;;;;;;;8.15;3.58;;;;;;;19.62;81.92;101642.44;4952096;29;20028;-96
2023/07/17 06:14:07;;;;;;;10.50;4.10;;;;;;;19.06;82.42;101604.28;4947412;29;20555;-96
2023/07/17 06:16:35;;;;;;;13.73;4.20;;;;;;;18.79;84.10;101611.19;4942246;29;20107;-96
2023/07/17 06:19:03;;;;;;;11.20;4.20;;;;;;;18.64;85.78;101641.25;4949397;29;20024;-96
2023/07/17 06:22:09;;;;;;;8.98;3.88;;;;;;;18.34;88.58;101610.72;4956228;29;20518;-96
2023/07/17 06:24:52;;;;;;;11.20;4.28;;;;;;;18.23;88.63;101619.00;4953907;29;20040;-96
2023/07/17 06:27:24;;;;;;;12.07;4.10;;;;;;;18.41;89.02;101643.75;5145840;23;20433;-96
2023/07/17 06:29:49;;;;;;;11.67;4.60;;;;;;;18.20;88.82;101622.28;4940459;29;20825;-96
2023/07/17 06:32:26;;;;;;;;;;;;;;;;;;;;;
2023/07/17 06:34:54;;;;;;;9.15;4.15;;;;;;;18.21;90.39;101639.34;4944312;29;20096;-96
2023/07/17 06:37:25;;;;;;;13.30;4.70;;;;;;;18.06;89.16;101629.53;4944222;28;20031;-96
2023/07/17 06:39:51;;;;;;;13.30;4.63;;;;;;;18.20;89.10;101646.69;4946266;29;20032;-96
2023/07/17 06:42:17;;;;;;;9.17;4.13;;;;;;;18.07;89.80;101623.00;4932089;29;20354;-96
2023/07/17 06:44:43;;;;;;;10.25;4.55;;;;;;;18.25;89.39;101651.25;4948460;29;20051;-96
2023/07/17 06:47:19;;;;;;;9.77;3.93;;;;;;;18.35;90.09;101656.53;4940671;29;20032;-96
2023/07/17 06:49:44;;;;;;;8.75;3.92;;;;;;;18.44;89.28;101673.00;4937257;28;20028;-96
2023/07/17 06:52:10;;;;;;;10.80;4.68;;;;;;;18.29;90.17;101644.94;4938064;29;20044;-96
2023/07/17 06:54:35;;;;;;;12.57;3.70;;;;;;;18.39;88.77;101641.28;4938961;29;20105;-96
2023/07/17 06:57:01;;;;;;;12.40;4.67;;;;;;;18.55;87.46;101679.91;4939949;29;20031;-96
2023/07/17 06:59:46;;;;;;;11.48;4.10;;;;;;;18.36;86.44;101651.94;4958146;29;20049;-96
2023/07/17 07:02:21;;;;;;;11.35;4.57;;;;;;;18.48;87.72;101643.38;4939598;29;20067;-96
2023/07/17 07:04:47;;;;;;;9.52;4.53;;;;;;;18.60;87.36;101644.56;4948786;29;20016;-96
2023/07/17 07:07:15;;;;;;;9.33;4.23;;;;;;;18.93;84.87;101646.53;4951485;29;20083;-96
2023/07/17 07:09:41;;;;;;;9.35;4.15;;;;;;;19.33;83.10;101662.53;4942194;29;20032;-96
2023/07/17 07:12:07;;;;;;;8.48;4.07;;;;;;;19.79;82.25;101709.88;4941431;29;20055;-96
2023/07/17 07:14:33;;;;;;;12.48;4.60;;;;;;;19.70;78.61;101682.56;4945707;29;20388;-96
2023/07/17 07:16:59;;;;;;;9.87;4.37;;;;;;;19.77;79.61;101674.00;4951936;29;20051;-96
2023/07/17 07:19:25;;;;;;;8.30;3.85;;;;;;;19.97;79.42;101692.69;4944023;29;20081;-96
2023/07/17 07:21:51;;;;;;;9.80;4.10;;;;;;;20.18;78.41;101714.03;4937911;28;20023;-96
2023/07/17 07:24:19;;;;;;;10.15;3.90;;;;;;;20.21;76.79;101708.00;4941132;29;20083;-96
2023/07/17 07:26:44;;;;;;;9.30;4.50;;;;;;;20.02;76.36;101677.38;4939812;29;20043;-96
2023/07/17 07:29:10;;;;;;;10.73;3.97;;;;;;;20.31;76.78;101690.66;4942404;28;20407;-96
2023/07/17 07:31:36;;;;;;;11.52;4.30;;;;;;;20.35;73.55;101712.66;4945882;29;20023;-96
2023/07/17 07:34:02;;;;;;;10.10;3.93;;;;;;;19.95;74.99;101691.38;4936518;29;20071;-96
2023/07/17 07:36:28;;;;;;;11.88;3.80;;;;;;;20.25;74.79;101724.56;4936741;29;20400;-96
2023/07/17 07:38:54;;;;;;;9.97;3.80;;;;;;;20.24;75.53;101698.44;4936569;29;20032;-96
2023/07/17 07:41:20;;;;;;;6.95;3.72;;;;;;;20.15;75.33;101681.19;4937047;28;20031;-96
2023/07/17 07:43:45;;;;;;;10.93;3.88;;;;;;;20.42;73.98;101689.38;4939610;29;20032;-96
2023/07/17 07:46:11;;;;;;;10.47;3.90;;;;;;;20.77;73.70;101707.97;4937822;29;20027;-96
2023/07/17 07:48:37;;;;;;;9.13;3.77;;;;;;;20.91;72.34;101690.81;4937939;29;20027;-96
2023/07/17 07:51:03;;;;;;;10.38;3.78;;;;;;;21.04;69.89;101728.09;4937947;29;20113;-96
2023/07/17 07:53:29;;;;;;;16.23;3.83;;;;;;;20.62;69.55;101706.38;4937709;28;20050;-96
2023/07/17 07:55:55;;;;;;;10.05;3.60;;;;;;;20.46;71.11;101707.78;4937570;29;20724;-96
2023/07/17 07:58:21;;;;;;;7.33;3.10;;;;;;;20.27;69.98;101701.38;4938040;29;20028;-96
2023/07/17 08:00:46;;;;;;;11.68;3.72;;;;;;;20.19;70.56;101709.41;4919400;29;20027;-96
2023/07/17 08:03:12;;;;;;;11.93;3.80;;;;;;;19.97;72.51;101711.75;4934734;29;20031;-96
2023/07/17 08:05:37;;;;;;;10.35;3.92;;;;;;;19.85;72.15;101735.03;4934546;29;20074;-96
2023/07/17 08:08:04;;;;;;;8.10;3.37;;;;;;;19.63;73.87;101722.91;4934963;29;20055;-96
2023/07/17 08:10:30;;;;;;;10.83;3.77;;;;;;;20.12;75.06;101745.19;4935116;29;20814;-96
2023/07/17 08:12:57;;;;;;;9.60;3.80;;;;;;;20.31;73.98;101728.75;4935513;29;20062;-96
2023/07/17 08:15:22;;;;;;;8.70;3.70;;;;;;;20.72;72.73;101714.31;4934401;29;20087;-96
2023/07/17 08:17:48;;;;;;;9.13;3.70;;;;;;;21.16;69.14;101758.31;4935608;29;20024;-96
2023/07/17 08:20:13;;;;;;;10.23;3.90;;;;;;;20.92;69.87;101746.88;4955614;29;20016;-96
2023/07/17 08:22:39;;;;;;;9.27;4.00;;;;;;;20.75;68.65;101733.88;4936549;28;20016;-95
2023/07/17 08:25:05;;;;;;;9.57;3.90;;;;;;;20.90;67.56;101749.13;4941101;29;20027;-95
2023/07/17 08:27:30;;;;;;;7.13;3.78;;;;;;;20.61;64.88;101732.00;4951761;29;20383;-96
2023/07/17 08:29:56;;;;;;;11.20;3.37;;;;;;;20.33;66.32;101742.09;4934859;29;20024;-95
2023/07/17 08:32:21;;;;;;;9.63;3.87;;;;;;;20.45;68.22;101757.91;4934478;29;20476;-96
2023/07/17 08:34:46;;;;;;;10.82;3.78;;;;;;;20.55;66.83;101744.88;4936122;29;20024;-95
2023/07/17 08:37:12;;;;;;;11.83;3.90;;;;;;;20.77;66.79;101753.47;4943500;29;20039;-96
2023/07/17 08:39:37;;;;;;;9.47;3.97;;;;;;;20.96;65.62;101740.53;4936239;29;20452;-96
2023/07/17 08:42:03;;;;;;;8.37;3.43;;;;;;;21.16;65.01;101750.16;4937434;29;20024;-96
2023/07/17 08:44:30;;;;;;;9.25;3.95;;;;;;;21.10;67.05;101723.34;4939182;29;20030;-96
2023/07/17 08:46:56;;;;;;;7.68;3.42;;;;;;;21.26;63.73;101719.13;4938771;29;20055;-96
2023/07/17 08:49:24;;;;;;;8.98;3.70;;;;;;;21.60;62.04;101739.59;4936820;29;20034;-95
2023/07/17 08:51:51;;;;;;;8.82;3.60;;;;;;;22.07;60.91;101741.16;4937140;29;20154;-96
2023/07/17 08:54:20;;;;;;;12.90;3.50;;;;;;;22.57;58.75;101755.63;4938119;29;20035;-96
2023/07/17 08:56:51;;;;;;;6.90;2.83;;;;;;;22.60;56.59;101763.19;4938732;29;20285;-96
2023/07/17 08:59:19;;;;;;;12.15;4.10;;;;;;;22.53;56.96;101764.47;4937792;29;20107;-96
2023/07/17 09:01:44;;;;;;;7.25;3.50;;;;;;;22.51;56.37;101744.84;4937728;29;20032;-96
2023/07/17 09:04:12;;;;;;;7.13;3.33;;;;;;;22.56;55.21;101730.25;4938232;29;20507;-96
2023/07/17 09:06:37;;;;;;;8.57;3.38;;;;;;;22.95;53.53;101752.34;4938115;29;20047;-96
2023/07/17 09:09:03;;;;;;;9.83;3.50;;;;;;;23.21;53.68;101748.81;4938266;29;20031;-96
2023/07/17 09:11:28;;;;;;;7.37;3.33;;;;;;;23.35;52.07;101716.66;4940329;29;20026;-96
2023/07/17 09:13:53;;;;;;;10.27;3.25;;;;;;;23.73;51.43;101726.88;4944359;28;20031;-96
2023/07/17 09:16:22;;;;;;;8.20;3.13;;;;;;;24.31;51.33;101756.63;4938656;29;20024;-95
2023/07/17 09:18:49;;;;;;;6.28;3.28;;;;;;;24.29;48.79;101760.84;4937909;29;20035;-96
2023/07/17 09:21:22;;;;;;;7.82;3.50;;;;;;;23.72;50.08;101724.47;4939521;29;20024;-96
2023/07/17 09:23:54;;;;;;;8.90;3.92;;;;;;;23.51;51.42;101729.81;4939811;29;20107;-96
2023/07/17 09:26:21;;;;;;;6.90;3.40;;;;;;;24.00;52.46;101735.03;4942848;29;20019;-96
2023/07/17 09:28:51;;;;;;;7.13;3.07;;;;;;;24.51;48.37;101765.22;4946374;29;20049;-96
2023/07/17 09:31:28;;;;;;;8.80;3.20;;;;;;;24.20;49.66;101739.75;4948199;29;20391;-96
2023/07/17 09:33:56;;;;;;;7.57;3.42;;;;;;;24.61;50.37;101742.94;4947246;29;20023;-96
2023/07/17 09:36:22;;;;;;;10.60;3.63;;;;;;;24.97;48.05;101764.66;4953528;29;20023;-96
2023/07/17 09:38:56;;;;;;;6.72;3.45;;;;;;;24.84;47.48;101767.31;4955383;28;20026;-96
2023/07/17 09:41:24;;;;;;;8.38;3.70;;;;;;;24.91;46.18;101767.59;4958776;29;20075;-96
2023/07/17 09:44:03;;;;;;;6.30;2.88;;;;;;;25.28;46.96;101757.94;4951671;29;20023;-96
2023/07/17 09:46:34;;;;;;;5.60;3.30;;;;;;;25.05;46.03;101739.09;4959251;29;20024;-96
2023/07/17 09:49:07;;;;;;;5.10;2.72;;;;;;;25.05;45.85;101761.03;4956210;28;20048;-96
2023/07/17 09:51:35;;;;;;;7.95;2.78;;;;;;;25.17;45.20;101733.69;4955981;29;20039;-96
2023/07/17 09:54:07;;;;;;;7.30;2.63;;;;;;;25.52;44.37;101744.34;4954834;29;20091;-96
2023/07/17 09:56:40;;;;;;;11.47;3.03;;;;;;;25.34;43.50;101740.16;4952384;29;20267;-96
2023/07/17 09:59:18;;;;;;;7.82;2.88;;;;;;;25.03;44.27;101738.63;4937864;29;20020;-96
2023/07/17 10:01:47;;;;;;;6.25;2.50;;;;;;;24.94;43.69;101739.50;4954437;29;20091;-96
2023/07/17 10:04:20;;;;;;;6.15;2.83;;;;;;;24.85;43.76;101755.19;4948180;29;20038;-96
2023/07/17 10:07:12;;;;;;;9.45;3.45;;;;;;;24.68;44.26;101767.06;4953079;29;20048;-96
2023/07/17 10:09:55;;;;;;;5.97;3.03;;;;;;;24.42;43.89;101770.75;4949771;29;20031;-96
2023/07/17 10:12:21;;;;;;;6.10;2.83;;;;;;;24.35;44.37;101757.56;4947699;29;20067;-96
2023/07/17 10:14:48;;;;;;;8.13;3.40;;;;;;;24.22;44.02;101752.31;4942418;29;20488;-96
2023/07/17 10:17:23;;;;;;;6.20;2.90;;;;;;;24.40;44.74;101769.47;4943278;29;20028;-96
2023/07/17 10:19:49;;;;;;;7.13;3.00;;;;;;;24.18;44.77;101769.44;4947794;29;20451;-96
2023/07/17 10:22:15;;;;;;;4.50;2.77;;;;;;;24.24;45.99;101745.41;4939746;29;20291;-96
2023/07/17 10:24:42;;;;;;;5.72;3.05;;;;;;;24.54;45.82;101761.03;4945455;29;20473;-96
2023/07/17 10:27:08;;;;;;;5.30;2.80;;;;;;;24.82;44.29;101731.22;4951459;29;20039;-96
2023/07/17 10:29:42;;;;;;;4.77;3.03;;;;;;;25.05;43.47;101758.28;4942083;29;20100;-96
2023/07/17 10:32:14;;;;;;;6.97;3.10;;;;;;;25.04;43.18;101757.50;4946010;28;20302;-96
2023/07/17 10:34:52;;;;;;;5.25;2.88;;;;;;;25.12;42.86;101772.28;4947389;29;20012;-96
2023/07/17 10:37:41;;;;;;;10.13;3.35;;;;;;;25.15;43.82;101757.06;4954064;29;20024;-96
2023/07/17 10:40:27;;;;;;;9.65;3.40;;;;;;;24.85;44.89;101737.97;4947771;29;20046;-96
2023/07/17 10:43:09;;;;;;;5.55;3.17;;;;;;;24.94;42.02;101745.00;4955499;29;20039;-96
2023/07/17 10:45:36;;;;;;;5.88;2.83;;;;;;;24.82;41.23;101761.38;4948755;29;20031;-96
2023/07/17 10:48:03;;;;;;;5.67;3.00;;;;;;;24.48;42.99;101752.19;4953206;28;20047;-96
2023/07/17 10:50:28;;;;;;;5.50;3.05;;;;;;;24.43;41.38;101777.03;4950724;29;20019;-96
2023/07/17 10:52:54;;;;;;;7.63;3.53;;;;;;;24.38;41.92;101736.13;4953435;29;20055;-96
2023/07/17 10:55:32;;;;;;;6.67;3.30;;;;;;;24.87;43.16;101765.84;4951692;29;20024;-96
2023/07/17 11:00:39;;;;;;;7.32;3.47;;;;;;;25.47;42.42;101758.28;5498777;23;20047;-96
2023/07/17 11:03:26;;;;;;;6.97;3.23;;;;;;;25.31;43.51;101729.84;4918119;29;20140;-96
2023/07/17 11:06:01;;;;;;;5.30;3.00;;;;;;;25.80;42.09;101764.88;4921510;29;20304;-96
2023/07/17 11:21:29;;;;;;;8.18;3.33;;;;;;;25.71;39.92;101723.81;5592216;23;20039;-96
2023/07/17 11:26:49;;;;;;;6.82;3.78;;;;;;;25.40;41.75;101758.78;5885589;23;21203;-96
2023/07/17 11:45:34;;;;;;;9.35;3.55;;;;;;;24.98;42.35;101728.66;5285069;23;20061;-95
2023/07/17 11:48:46;;;;;;;7.00;3.80;;;;;;;25.16;43.26;101773.22;4939837;29;20062;-96
2023/07/17 11:51:42;;;;;;;7.93;3.90;;;;;;;24.92;43.41;101744.53;4935692;29;20051;-96
2023/07/17 11:54:15;;;;;;;7.07;4.43;;;;;;;25.06;43.53;101762.63;4974737;23;20972;-96
2023/07/17 11:56:44;;;;;;;7.87;3.30;;;;;;;25.46;43.52;101769.59;4958747;29;20020;-96
2023/07/17 11:59:53;;;;;;;9.30;3.90;;;;;;;25.77;43.44;101733.41;4955344;29;20271;-96
2023/07/17 12:02:32;;;;;;;6.55;3.70;;;;;;;25.97;40.74;101739.97;4957353;29;20027;-96
2023/07/17 12:05:23;;;;;;;6.30;3.97;;;;;;;26.04;40.65;101753.13;4957161;29;20028;-96
2023/07/17 12:22:05;;;;;;;6.15;3.70;;;;;;;26.73;38.12;101756.09;6009207;23;20409;-92
2023/07/17 13:46:50;;;;;;;4.73;2.57;;;;;;;25.82;39.71;101727.72;5376473;23;20302;-95
2023/07/17 14:04:46;;;;;;;4.00;2.63;;;;;;;23.46;50.02;101781.94;5278583;23;20055;-96
2023/07/17 15:02:02;;;;;;;8.48;3.85;;;;;;;22.29;59.62;101813.16;5977212;23;21201;-96
2023/07/17 18:04:04;;;;;;;4.80;1.83;;;;;;;22.53;47.07;101835.47;5133859;23;20565;-96
2023/07/17 18:26:00;;;;;;;6.05;1.85;;;;;;;21.43;52.52;101854.78;4956369;29;20047;-96
2023/07/17 18:28:27;;;;;;;6.53;1.77;;;;;;;21.29;53.95;101859.44;4924704;29;20056;-96
2023/07/17 18:30:55;;;;;;;4.90;1.65;;;;;;;21.30;54.91;101886.41;4975429;23;20111;-96
2023/07/17 18:33:22;;;;;;;3.97;1.27;;;;;;;20.99;53.61;101840.72;4959762;29;20035;-96
2023/07/17 18:35:50;;;;;;;6.40;1.77;;;;;;;20.72;54.18;101847.75;4960397;29;20279;-96
2023/07/17 18:38:16;;;;;;;4.20;1.50;;;;;;;20.76;55.70;101855.34;4952877;29;20111;-96
2023/07/17 18:40:43;;;;;;;5.78;1.58;;;;;;;20.57;56.64;101846.13;4955694;29;20020;-95
2023/07/17 18:43:10;;;;;;;7.78;1.73;;;;;;;20.58;57.63;101864.06;4956331;29;20027;-96
2023/07/17 18:45:35;;;;;;;6.63;1.70;;;;;;;20.38;57.68;101854.38;4954150;29;20042;-96
2023/07/17 18:48:01;;;;;;;5.83;1.47;;;;;;;20.27;58.53;101847.47;4949667;29;20027;-96
2023/07/17 18:50:29;;;;;;;3.90;1.60;;;;;;;20.33;59.47;101876.22;4951805;29;20275;-96
2023/07/17 18:52:55;;;;;;;6.85;1.50;;;;;;;20.37;59.89;101890.88;4945261;29;20047;-96
2023/07/17 18:55:21;;;;;;;8.05;1.77;;;;;;;20.20;60.12;101879.72;4931304;29;20094;-96
2023/07/17 18:57:47;;;;;;;7.13;1.47;;;;;;;20.00;61.60;101872.69;4955166;29;20067;-96
2023/07/17 19:00:13;;;;;;;5.43;1.80;;;;;;;20.13;62.66;101904.59;4953409;29;20035;-96
2023/07/17 19:02:43;;;;;;;7.65;1.70;;;;;;;19.85;62.36;101879.97;4955027;29;20035;-96
2023/07/17 19:05:11;;;;;;;4.45;1.92;;;;;;;19.88;63.41;101905.81;5027917;23;20064;-96
2023/07/17 19:07:37;;;;;;;7.68;2.05;;;;;;;19.67;63.45;101878.88;4950478;29;20027;-96
2023/07/17 19:10:03;;;;;;;6.43;1.73;;;;;;;19.90;63.82;101918.00;4949530;29;20023;-96
2023/07/17 19:12:30;;;;;;;4.90;1.65;;;;;;;19.55;64.59;101878.50;4947996;29;20019;-96
2023/07/17 19:14:56;;;;;;;8.18;1.70;;;;;;;19.68;65.04;101929.44;4929385;29;20031;-96
2023/07/17 19:48:48;;;;;;;5.07;1.67;;;;;;;18.42;70.83;101951.97;5796722;23;20036;-96
2023/07/17 19:51:16;;;;;;;6.07;1.50;;;;;;;18.39;73.64;101960.66;4951460;29;20100;-96
2023/07/17 19:54:26;;;;;;;5.55;1.50;;;;;;;18.01;72.76;101923.22;4942564;29;20032;-96
2023/07/17 19:57:41;;;;;;;7.88;1.52;;;;;;;17.92;75.59;101933.81;4938975;29;20032;-96
2023/07/17 20:00:19;;;;;;;4.82;1.42;;;;;;;17.76;77.03;101933.13;4953959;29;20119;-96
2023/07/17 20:03:08;;;;;;;4.90;1.30;;;;;;;17.92;76.54;101968.25;4954732;29;20126;-96
2023/07/17 20:06:09;;;;;;;5.17;1.77;;;;;;;17.56;77.78;101939.44;4920001;29;20299;-96
2023/07/17 20:09:33;;;;;;;4.88;1.50;;;;;;;17.56;78.60;101971.94;4956463;29;20052;-96
2023/07/17 20:12:17;;;;;;;5.13;1.60;;;;;;;17.31;80.92;101964.72;4955443;29;20028;-96
2023/07/17 20:17:57;;;;;;;3.95;1.50;;;;;;;17.00;82.18;101938.53;4958334;29;20060;-96
2023/07/17 20:20:49;;;;;;;8.15;1.50;;;;;;;17.04;82.15;101961.28;4956138;29;20023;-96
2023/07/17 20:23:35;;;;;;;6.65;1.50;;;;;;;16.95;82.39;101958.31;4953597;29;20054;-96
2023/07/17 20:26:07;;;;;;;5.22;1.63;;;;;;;16.99;83.55;101984.84;5512333;23;20061;-96
2023/07/17 20:28:34;;;;;;;8.30;1.90;;;;;;;16.97;85.36;101995.13;4939524;29;20067;-96
2023/07/17 20:31:22;;;;;;;4.50;1.57;;;;;;;16.77;85.79;101966.97;4936362;29;20255;-96
2023/07/17 20:33:52;;;;;;;3.33;1.60;;;;;;;16.60;86.33;101956.44;4934289;29;20347;-96
2023/07/17 20:36:20;;;;;;;5.82;1.77;;;;;;;16.74;88.61;101992.69;4935639;29;20060;-96
2023/07/17 20:38:59;;;;;;;4.32;1.42;;;;;;;16.56;86.68;101975.09;4937099;29;20032;-96
2023/07/17 20:41:31;;;;;;;6.28;1.60;;;;;;;16.48;88.91;101965.63;4937871;29;20032;-96
2023/07/17 20:44:10;;;;;;;7.32;1.73;;;;;;;16.31;89.46;101949.66;4935619;29;20048;-96
2023/07/17 20:46:59;;;;;;;4.22;1.55;;;;;;;16.35;88.93;101960.75;4937219;29;20434;-96
2023/07/17 20:49:28;;;;;;;6.22;1.77;;;;;;;16.41;89.75;101975.09;4907198;29;20046;-96
2023/07/17 20:52:34;;;;;;;6.78;1.58;;;;;;;16.63;87.74;102002.69;4909830;29;20032;-96
2023/07/17 21:00:30;;;;;;;4.37;1.77;;;;;;;16.27;91.46;101991.84;5003999;23;20302;-96
2023/07/17 21:03:28;;;;;;;4.72;1.60;;;;;;;15.95;90.84;101956.91;4947409;29;20044;-96
2023/07/17 21:06:33;;;;;;;4.38;1.52;;;;;;;16.25;92.00;102001.31;4960398;29;20052;-96
2023/07/17 21:09:06;;;;;;;4.25;1.30;;;;;;;15.88;92.51;101968.78;4959841;29;20095;-96
2023/07/17 21:11:47;;;;;;;7.85;1.30;;;;;;;15.79;93.51;101954.13;4944859;29;20064;-96
2023/07/17 21:14:57;;;;;;;6.88;1.58;;;;;;;15.65;91.18;101945.69;4959075;29;20035;-96
2023/07/17 21:18:20;;;;;;;4.47;1.38;;;;;;;15.58;92.84;101953.25;4908510;29;20073;-96
2023/07/17 21:21:31;;;;;;;6.70;1.60;;;;;;;15.44;94.29;101956.41;4919005;29;20583;-96
2023/07/17 21:24:24;;;;;;;4.43;1.55;;;;;;;15.36;93.62;101950.69;4958048;29;20052;-96
2023/07/17 21:27:06;;;;;;;3.40;1.27;;;;;;;15.55;96.01;101978.09;4959943;29;20047;-96
2023/07/17 21:29:41;;;;;;;6.23;1.40;;;;;;;15.38;96.17;101943.16;4957236;29;20760;-96
2023/07/17 21:32:11;;;;;;;5.63;1.42;;;;;;;15.57;96.29;101981.34;4924425;29;20035;-96
2023/07/17 21:35:02;;;;;;;4.45;1.65;;;;;;;15.49;95.02;101971.03;4957109;29;20079;-96
2023/07/17 21:37:39;;;;;;;2.40;1.40;;;;;;;15.43;95.95;101964.78;4960661;29;20019;-96
2023/07/17 21:40:09;;;;;;;4.50;1.52;;;;;;;15.69;96.64;102018.94;4953989;29;20071;-96
2023/07/17 21:42:35;;;;;;;3.75;1.38;;;;;;;15.36;97.22;101978.53;4940180;29;20023;-96
2023/07/17 21:45:01;;;;;;;6.43;1.70;;;;;;;15.23;97.59;101974.41;4959625;29;20047;-96
2023/07/17 21:47:37;;;;;;;5.03;1.60;;;;;;;15.24;97.90;101989.53;4938967;29;20276;-96
2023/07/17 21:50:07;;;;;;;4.57;1.58;;;;;;;15.46;98.09;102026.38;4954182;29;20046;-96
2023/07/17 21:53:13;;;;;;;5.13;1.70;;;;;;;15.48;97.84;102020.72;4954858;29;20079;-96
2023/07/17 21:55:40;;;;;;;4.88;1.73;;;;;;;15.23;98.19;101981.72;4952308;29;20028;-96
2023/07/17 21:58:06;;;;;;;3.47;1.63;;;;;;;15.20;97.72;101979.53;4950729;29;20458;-96
2023/07/17 22:00:34;;;;;;;8.38;2.10;;;;;;;15.18;97.88;101976.25;4947328;29;20028;-96
2023/07/17 22:03:00;;;;;;;4.73;1.73;;;;;;;15.23;98.32;102000.59;4946414;29;20070;-96
2023/07/17 22:05:25;;;;;;;4.90;1.70;;;;;;;15.01;99.01;101988.03;4942140;29;20643;-96
2023/07/17 22:07:51;;;;;;;5.20;1.70;;;;;;;14.92;100.00;101986.88;4939267;29;20028;-96
2023/07/17 22:10:17;;;;;;;4.27;1.90;;;;;;;15.20;100.00;102036.22;4940471;29;20043;-96
2023/07/17 22:12:43;;;;;;;4.72;1.70;;;;;;;14.84;100.00;101971.97;4938813;29;20043;-96
2023/07/17 22:15:09;;;;;;;6.25;2.10;;;;;;;15.15;100.00;102023.50;4939671;29;20024;-96
2023/07/17 22:17:35;;;;;;;5.90;1.48;;;;;;;14.99;100.00;102012.56;4944270;29;20031;-96
2023/07/17 22:20:02;;;;;;;3.83;1.95;;;;;;;14.79;100.00;101982.75;4943598;29;20032;-96
2023/07/17 22:22:28;;;;;;;9.20;1.90;;;;;;;14.72;100.00;101974.06;4941551;28;20047;-96
2023/07/17 22:24:53;;;;;;;3.47;1.60;;;;;;;14.69;100.00;101978.09;4943983;29;20823;-96
2023/07/17 22:27:19;;;;;;;5.93;1.70;;;;;;;14.62;100.00;101980.16;4942320;29;20031;-96
2023/07/17 22:29:45;;;;;;;4.60;1.50;;;;;;;14.81;100.00;102011.09;4944321;29;20243;-96
2023/07/17 22:32:13;;;;;;;6.22;1.70;;;;;;;14.70;100.00;101993.19;4951162;29;20067;-96
2023/07/17 22:34:39;;;;;;;4.28;1.77;;;;;;;14.63;100.00;101992.56;4951747;29;20034;-96
2023/07/17 22:37:05;;;;;;;5.53;1.95;;;;;;;14.67;100.00;101996.41;4943389;29;20452;-96
2023/07/17 22:39:42;;;;;;;5.13;1.77;;;;;;;14.71;100.00;102000.22;4941715;29;20106;-96
2023/07/17 22:42:08;;;;;;;5.55;1.70;;;;;;;14.49;100.00;101971.44;4941064;29;20403;-96
2023/07/17 22:44:34;;;;;;;6.57;2.07;;;;;;;14.49;100.00;101978.69;4940438;29;20028;-96
2023/07/17 22:46:59;;;;;;;5.50;1.80;;;;;;;14.56;100.00;101995.47;4937043;29;20373;-95
2023/07/17 22:49:30;;;;;;;4.73;1.80;;;;;;;14.39;100.00;101969.44;4939830;29;20024;-96
2023/07/17 22:51:57;;;;;;;5.22;2.00;;;;;;;14.60;100.00;102015.50;4938904;29;20122;-96
2023/07/17 22:54:22;;;;;;;4.40;1.83;;;;;;;14.56;100.00;102006.28;4940486;29;20055;-96
2023/07/17 22:56:48;;;;;;;5.13;1.80;;;;;;;14.58;100.00;102017.63;4942122;28;20026;-96
2023/07/17 22:59:14;;;;;;;5.47;2.15;;;;;;;14.64;100.00;102040.84;4941774;29;20440;-96
2023/07/17 23:01:41;;;;;;;2.70;1.73;;;;;;;14.37;100.00;101992.31;4941494;28;20024;-96
2023/07/17 23:04:07;;;;;;;4.33;1.57;;;;;;;14.59;100.00;102023.81;4957743;29;20035;-96
2023/07/17 23:06:32;;;;;;;4.00;1.43;;;;;;;14.56;100.00;102014.38;4941157;29;20284;-96
2023/07/17 23:09:00;;;;;;;5.82;1.73;;;;;;;14.48;100.00;102004.84;4939807;29;20128;-96
2023/07/17 23:11:25;;;;;;;4.97;2.10;;;;;;;14.62;100.00;102029.50;4941471;29;20032;-96
2023/07/17 23:13:51;;;;;;;4.90;1.83;;;;;;;14.67;100.00;102034.16;4942616;29;20230;-96
2023/07/17 23:16:16;;;;;;;2.97;1.90;;;;;;;14.48;100.00;102001.34;4941949;29;20038;-96
2023/07/17 23:18:42;;;;;;;5.83;2.20;;;;;;;14.52;100.00;102007.84;4948858;29;20311;-96
2023/07/17 23:21:08;;;;;;;3.93;1.93;;;;;;;14.46;100.00;102006.16;4944388;29;20027;-96
2023/07/17 23:23:33;;;;;;;4.82;2.00;;;;;;;14.44;100.00;102009.13;4943364;29;20112;-95
2023/07/17 23:25:59;;;;;;;3.20;1.97;;;;;;;14.32;100.00;101987.72;4945212;29;20090;-96
2023/07/17 23:28:24;;;;;;;6.05;2.20;;;;;;;14.36;100.00;102021.19;4949549;29;20090;-95
2023/07/17 23:30:50;;;;;;;5.07;1.93;;;;;;;14.14;100.00;101985.38;4948503;29;20055;-96
2023/07/17 23:33:15;;;;;;;10.98;2.28;;;;;;;14.23;100.00;102010.81;4948707;29;20020;-96
2023/07/17 23:35:41;;;;;;;5.17;1.93;;;;;;;14.22;100.00;102001.91;4948067;29;20038;-96
2023/07/17 23:38:06;;;;;;;5.97;2.20;;;;;;;14.29;100.00;102014.38;4948194;29;20068;-96
2023/07/17 23:40:31;;;;;;;4.20;2.17;;;;;;;14.24;100.00;102018.63;4946229;29;20034;-96
2023/07/17 23:42:59;;;;;;;5.53;2.17;;;;;;;14.14;100.00;101998.84;4945171;29;20027;-96
2023/07/17 23:45:26;;;;;;;3.20;2.00;;;;;;;14.15;100.00;102009.34;4936676;28;20040;-96
2023/07/17 23:47:54;;;;;;;2.90;1.98;;;;;;;13.98;100.00;101985.19;4935528;29;20030;-96
2023/07/17 23:50:20;;;;;;;6.10;2.20;;;;;;;14.11;100.00;102013.66;4936915;29;20024;-96
2023/07/17 23:52:46;;;;;;;4.88;1.90;;;;;;;13.75;100.00;101962.84;4937245;29;20578;-96
2023/07/17 23:55:15;;;;;;;8.23;2.00;;;;;;;13.88;100.00;101988.59;4936074;29;20027;-96
2023/07/17 23:57:43;;;;;;;5.50;2.10;;;;;;;13.69;100.00;101979.19;4935725;29;20123;-96
